Time;durP1;ratioP1;P1;durP2;ratioP2;P2;SDS_P1;SDS_P2;PMS_P1;PMS_P2;Temp;Humidity;BMP_temperature;BMP_pressure;BME280_temperature;BME280_humidity;BME280_pressure;Samples;Min_cycle;Max_cycle;Signal;HPM_P1;HPM_P2
2021/06/15 00:00:42;;;;;;;7.10;4.40;;;;;;;18.26;57.47;99094.41;3589898;40;20052;-65
2021/06/15 00:03:10;;;;;;;5.45;4.32;;;;;;;18.28;57.78;99101.16;3589196;40;20113;-66
2021/06/15 00:05:37;;;;;;;4.97;4.35;;;;;;;18.30;58.06;99101.75;3588505;40;20092;-65
2021/06/15 00:08:06;;;;;;;7.57;4.90;;;;;;;18.22;58.12;99096.75;3588753;40;20250;-65
2021/06/15 00:10:34;;;;;;;6.13;4.18;;;;;;;18.20;58.41;99098.84;3589246;40;20064;-64
2021/06/15 00:13:02;;;;;;;5.80;4.72;;;;;;;18.19;58.58;99107.91;3589472;40;20045;-65
2021/06/15 00:15:30;;;;;;;10.35;4.75;;;;;;;18.15;58.39;99103.28;3589128;40;20372;-64
2021/06/15 00:17:58;;;;;;;5.80;4.60;;;;;;;18.04;59.06;99102.22;3588986;40;20394;-65
2021/06/15 00:20:26;;;;;;;8.52;5.00;;;;;;;17.87;59.58;99101.31;3589062;40;20040;-65
2021/06/15 00:22:55;;;;;;;7.82;5.10;;;;;;;17.77;59.77;99101.88;3589118;40;20051;-65
2021/06/15 00:25:24;;;;;;;6.65;4.70;;;;;;;17.61;60.15;99102.53;3589167;40;20063;-66
2021/06/15 00:27:52;;;;;;;8.70;5.93;;;;;;;17.37;60.76;99112.38;3589024;40;20324;-65
2021/06/15 00:30:21;;;;;;;8.18;5.05;;;;;;;17.26;61.29;99112.09;3579974;40;20075;-65
2021/06/15 00:32:51;;;;;;;4.78;4.32;;;;;;;17.33;61.36;99104.81;3588281;40;20052;-64
2021/06/15 00:35:19;;;;;;;7.50;4.93;;;;;;;17.42;60.65;99104.47;3589198;40;20397;-65
2021/06/15 00:37:47;;;;;;;6.13;4.85;;;;;;;17.48;60.29;99104.38;3588939;40;20055;-64
2021/06/15 00:40:15;;;;;;;7.18;5.60;;;;;;;17.40;60.89;99102.03;3579736;40;20124;-65
2021/06/15 00:42:44;;;;;;;6.60;4.82;;;;;;;17.21;61.40;99097.81;3588137;40;20044;-64
2021/06/15 00:45:15;;;;;;;7.00;4.60;;;;;;;17.23;61.34;99093.88;3589146;40;20052;-64
2021/06/15 00:47:46;;;;;;;9.30;5.35;;;;;;;17.26;61.64;99097.94;3579391;40;20039;-64
2021/06/15 00:50:15;;;;;;;5.93;5.32;;;;;;;17.25;61.21;99091.78;3579397;40;20049;-64
2021/06/15 00:52:43;;;;;;;6.68;5.18;;;;;;;17.27;61.06;99099.59;3589116;40;20052;-64
2021/06/15 00:55:13;;;;;;;6.82;5.15;;;;;;;17.27;60.83;99102.25;3579938;40;20401;-65
2021/06/15 00:57:42;;;;;;;6.93;4.70;;;;;;;17.19;61.18;99099.91;3579115;40;20402;-64
2021/06/15 01:00:12;;;;;;;7.50;4.55;;;;;;;17.21;61.38;99095.13;3588147;40;20052;-64
2021/06/15 01:02:40;;;;;;;5.60;5.00;;;;;;;17.21;60.66;99090.59;3588901;40;20048;-64
2021/06/15 01:05:10;;;;;;;5.68;5.15;;;;;;;17.09;61.20;99090.56;3588800;40;20044;-64
2021/06/15 01:07:46;;;;;;;6.53;5.57;;;;;;;16.95;62.13;99091.81;3588475;40;20130;-64
2021/06/15 01:10:28;;;;;;;7.70;4.90;;;;;;;16.86;62.28;99090.50;3579382;40;20044;-65
2021/06/15 01:13:05;;;;;;;6.25;5.03;;;;;;;16.85;62.21;99083.53;3579518;40;20326;-65
2021/06/15 01:15:46;;;;;;;6.15;4.47;;;;;;;16.88;61.76;99092.94;3588701;40;20048;-65
2021/06/15 01:18:18;;;;;;;7.93;4.85;;;;;;;16.84;61.68;99082.72;3588194;40;20412;-65
2021/06/15 01:20:51;;;;;;;5.25;4.57;;;;;;;16.84;61.50;99090.72;3579304;40;20036;-66
2021/06/15 01:23:42;;;;;;;9.50;5.47;;;;;;;16.82;62.05;99090.16;3588796;40;20072;-66
2021/06/15 01:26:29;;;;;;;6.28;4.38;;;;;;;16.85;62.17;99086.19;3587700;40;20048;-64
2021/06/15 01:29:02;;;;;;;9.50;5.10;;;;;;;16.97;62.41;99096.91;3579320;40;20048;-64
2021/06/15 01:31:34;;;;;;;7.05;4.90;;;;;;;16.96;62.21;99089.97;3579573;40;20067;-64
2021/06/15 01:34:06;;;;;;;6.03;5.03;;;;;;;16.94;61.89;99086.69;3587387;40;20052;-64
2021/06/15 01:36:39;;;;;;;6.33;4.90;;;;;;;16.95;62.29;99093.69;3587796;40;20071;-64
2021/06/15 01:39:14;;;;;;;7.53;5.35;;;;;;;16.74;62.89;99092.31;3587466;40;20048;-64
2021/06/15 01:41:46;;;;;;;7.20;4.80;;;;;;;16.75;62.57;99099.28;3579418;40;20075;-66
2021/06/15 01:44:17;;;;;;;8.88;5.28;;;;;;;16.61;63.12;99095.91;3588453;40;20138;-64
2021/06/15 01:46:51;;;;;;;6.55;5.32;;;;;;;16.44;63.49;99094.91;3579371;40;20049;-64
2021/06/15 01:49:21;;;;;;;;;;;;;;;16.39;63.34;99100.09;3580251;40;20125;-64
2021/06/15 01:51:52;;;;;;;5.05;4.63;;;;;;;16.37;63.40;99100.34;3588686;40;19932;-64
2021/06/15 01:54:23;;;;;;;7.72;5.70;;;;;;;16.45;63.24;99086.69;3579329;40;20049;-64
2021/06/15 01:56:54;;;;;;;5.53;4.90;;;;;;;16.52;62.98;99089.25;3588329;40;20037;-64
2021/06/15 01:59:26;;;;;;;7.22;5.40;;;;;;;16.50;63.04;99088.69;3588512;40;20119;-64
2021/06/15 02:01:57;;;;;;;6.75;5.50;;;;;;;16.41;63.14;99079.31;3579478;40;20056;-64
2021/06/15 02:04:34;;;;;;;6.30;5.38;;;;;;;16.33;63.29;99077.81;3579423;40;20055;-65
2021/06/15 02:07:05;;;;;;;8.23;5.07;;;;;;;16.29;63.28;99073.94;3588307;40;20082;-64
2021/06/15 02:09:40;;;;;;;5.35;4.63;;;;;;;16.27;63.42;99078.69;3579001;40;20065;-65
2021/06/15 02:12:29;;;;;;;7.10;5.05;;;;;;;16.23;63.25;99072.97;3588407;40;20051;-65
2021/06/15 02:15:18;;;;;;;6.10;5.28;;;;;;;16.17;63.49;99076.53;3588737;40;20126;-64
2021/06/15 02:18:02;;;;;;;5.78;5.18;;;;;;;16.07;63.77;99070.88;3578621;40;20483;-65
2021/06/15 02:20:43;;;;;;;6.13;5.53;;;;;;;15.96;63.85;99067.13;3579415;40;20048;-65
2021/06/15 02:23:18;;;;;;;5.78;5.20;;;;;;;15.90;63.95;99062.66;3580394;40;20052;-65
2021/06/15 02:25:47;;;;;;;7.75;5.20;;;;;;;15.88;64.04;99072.75;3581610;40;20461;-65
2021/06/15 02:28:15;;;;;;;7.63;5.15;;;;;;;15.82;64.64;99068.28;3581889;40;20426;-65
2021/06/15 02:30:44;;;;;;;8.18;5.35;;;;;;;15.87;64.15;99065.75;3592961;40;20450;-65
2021/06/15 02:33:14;;;;;;;7.03;4.72;;;;;;;15.89;64.24;99066.38;3589984;40;20133;-65
2021/06/15 02:35:48;;;;;;;6.57;5.25;;;;;;;15.90;63.61;99070.66;3590268;40;20387;-65
2021/06/15 02:38:24;;;;;;;6.10;5.25;;;;;;;15.74;64.22;99068.56;3589796;40;20078;-65
2021/06/15 02:40:55;;;;;;;6.72;5.35;;;;;;;15.69;64.01;99071.88;3588914;40;20036;-65
2021/06/15 02:43:25;;;;;;;6.55;5.22;;;;;;;15.73;64.06;99067.75;3580705;40;20129;-66
2021/06/15 02:45:57;;;;;;;7.32;5.50;;;;;;;15.74;64.01;99071.22;3592183;40;20075;-65
2021/06/15 02:48:32;;;;;;;7.32;5.50;;;;;;;15.59;64.25;99071.50;3583719;40;20043;-64
2021/06/15 02:51:01;;;;;;;5.85;5.00;;;;;;;15.47;65.08;99073.25;3584574;40;20072;-64
2021/06/15 02:53:35;;;;;;;5.82;5.13;;;;;;;15.55;65.30;99073.84;3591377;40;20130;-64
2021/06/15 02:56:07;;;;;;;6.22;4.93;;;;;;;15.69;64.83;99084.41;3591791;40;20055;-64
2021/06/15 02:58:40;;;;;;;7.47;5.38;;;;;;;15.68;64.63;99080.91;3581027;40;20129;-66
2021/06/15 03:01:10;;;;;;;6.75;5.03;;;;;;;15.60;64.96;99076.66;3581155;40;20056;-64
2021/06/15 03:03:46;;;;;;;9.25;5.38;;;;;;;15.58;64.72;99080.56;3580437;40;20099;-64
2021/06/15 03:06:14;;;;;;;7.63;5.80;;;;;;;15.53;64.56;99080.41;3580740;40;20451;-64
2021/06/15 03:08:43;;;;;;;8.13;5.13;;;;;;;15.32;65.35;99085.06;3579881;40;20057;-65
2021/06/15 03:11:17;;;;;;;8.00;4.82;;;;;;;15.33;66.10;99083.22;3579983;40;20048;-64
2021/06/15 03:13:50;;;;;;;6.60;4.72;;;;;;;15.34;66.13;99082.19;3588531;40;20056;-65
2021/06/15 03:16:25;;;;;;;8.10;6.15;;;;;;;15.35;65.76;99087.31;3589536;40;20102;-63
2021/06/15 03:19:02;;;;;;;6.95;5.97;;;;;;;15.30;65.79;99092.44;3580139;40;20064;-63
2021/06/15 03:21:34;;;;;;;8.00;5.65;;;;;;;15.23;66.48;99089.03;3588597;40;20052;-63
2021/06/15 03:24:06;;;;;;;7.15;6.25;;;;;;;15.25;66.25;99089.63;3589750;40;20052;-67
2021/06/15 03:26:39;;;;;;;8.20;5.82;;;;;;;15.35;66.51;99089.16;3580072;40;20052;-64
2021/06/15 03:29:11;;;;;;;6.35;5.50;;;;;;;15.46;65.94;99084.97;3589572;40;20163;-64
2021/06/15 03:31:45;;;;;;;7.35;6.35;;;;;;;15.61;65.50;99085.44;3580221;40;20080;-65
2021/06/15 03:34:20;;;;;;;10.90;6.35;;;;;;;15.67;64.74;99084.59;3580136;40;20044;-63
2021/06/15 03:36:51;;;;;;;9.70;8.18;;;;;;;15.74;64.66;99085.38;3579903;40;20409;-64
2021/06/15 03:39:23;;;;;;;7.57;6.25;;;;;;;15.77;64.47;99082.25;3589240;40;20323;-64
2021/06/15 03:41:52;;;;;;;6.80;5.75;;;;;;;15.63;63.85;99082.56;3589471;40;20060;-64
2021/06/15 03:44:22;;;;;;;6.75;5.97;;;;;;;15.42;64.95;99087.25;3589332;40;20071;-64
2021/06/15 03:46:54;;;;;;;7.13;6.03;;;;;;;15.42;65.05;99083.75;3589286;40;20386;-64
2021/06/15 03:49:24;;;;;;;15.40;8.50;;;;;;;15.38;65.13;99088.69;3589232;40;20059;-64
2021/06/15 03:51:54;;;;;;;10.30;6.40;;;;;;;15.38;64.75;99085.22;3589347;40;20048;-64
2021/06/15 03:54:24;;;;;;;9.68;6.35;;;;;;;15.35;65.03;99087.31;3589067;40;20044;-64
2021/06/15 03:56:55;;;;;;;9.25;7.13;;;;;;;15.27;64.88;99086.75;3589281;40;20080;-64
2021/06/15 03:59:26;;;;;;;9.77;6.72;;;;;;;15.21;65.18;99091.06;3589144;40;20044;-65
2021/06/15 04:01:59;;;;;;;7.72;6.60;;;;;;;15.26;65.53;99093.09;3589107;40;20044;-64
2021/06/15 04:04:32;;;;;;;7.80;6.88;;;;;;;15.29;65.15;99095.34;3589526;40;20402;-64
2021/06/15 04:07:00;;;;;;;7.18;6.43;;;;;;;15.20;65.17;99093.97;3588910;40;20044;-65
2021/06/15 04:09:32;;;;;;;8.02;5.78;;;;;;;15.24;65.09;99092.50;3590475;40;20353;-64
2021/06/15 04:12:01;;;;;;;5.75;5.15;;;;;;;15.11;64.55;99093.41;3589956;40;20048;-64
2021/06/15 04:14:31;;;;;;;6.53;5.88;;;;;;;14.96;65.22;99095.56;3589381;40;20092;-64
2021/06/15 04:17:01;;;;;;;7.95;5.80;;;;;;;14.98;65.77;99101.47;3588995;40;20053;-64
2021/06/15 04:19:32;;;;;;;9.13;6.50;;;;;;;15.14;65.50;99102.81;3580553;40;20084;-64
2021/06/15 04:22:01;;;;;;;10.32;6.10;;;;;;;15.36;65.09;99104.91;3589494;40;20055;-65
2021/06/15 04:24:33;;;;;;;5.65;4.72;;;;;;;15.51;64.96;99101.09;3580242;40;20138;-64
2021/06/15 04:27:01;;;;;;;7.20;5.47;;;;;;;15.50;64.68;99104.81;3588977;40;20048;-64
2021/06/15 04:29:29;;;;;;;8.25;6.57;;;;;;;15.50;64.00;99102.13;3590158;40;20056;-64
2021/06/15 04:32:03;;;;;;;7.97;6.13;;;;;;;15.58;64.65;99107.19;3590236;40;20048;-64
2021/06/15 04:34:35;;;;;;;6.93;5.50;;;;;;;15.79;64.39;99104.16;3588962;40;20318;-65
2021/06/15 04:37:05;;;;;;;10.55;5.80;;;;;;;15.90;63.82;99101.84;3588727;40;20102;-65
2021/06/15 04:39:39;;;;;;;8.23;6.10;;;;;;;16.01;63.63;99106.44;3579657;40;20048;-65
2021/06/15 04:42:10;;;;;;;;;;;;;;;16.16;63.40;99103.41;3589653;40;20390;-66
2021/06/15 04:44:41;;;;;;;10.77;5.72;;;;;;;16.10;63.25;99105.94;3588833;40;19933;-65
2021/06/15 04:47:15;;;;;;;6.82;6.13;;;;;;;16.30;62.87;99108.41;3588762;40;20072;-64
2021/06/15 04:49:47;;;;;;;7.95;5.78;;;;;;;16.27;62.76;99108.81;3588920;40;20317;-64
2021/06/15 04:52:18;;;;;;;10.75;5.63;;;;;;;16.27;63.05;99108.81;3588384;40;20044;-64
2021/06/15 04:54:48;;;;;;;8.15;6.45;;;;;;;16.49;62.41;99111.88;3589098;40;20055;-64
2021/06/15 04:57:20;;;;;;;7.18;6.30;;;;;;;16.62;62.16;99115.44;3588624;40;20206;-65
2021/06/15 04:59:51;;;;;;;10.23;6.22;;;;;;;16.66;62.14;99114.75;3579778;40;20405;-65
2021/06/15 05:02:22;;;;;;;11.07;5.45;;;;;;;16.80;60.99;99121.56;3588832;40;20386;-65
2021/06/15 05:04:50;;;;;;;8.75;6.20;;;;;;;16.73;61.12;99117.34;3579775;40;20052;-65
2021/06/15 05:07:19;;;;;;;12.65;6.40;;;;;;;16.83;61.09;99117.66;3588532;40;20360;-65
2021/06/15 05:09:51;;;;;;;11.00;6.10;;;;;;;17.02;60.71;99111.25;3589206;40;20048;-64
2021/06/15 05:12:20;;;;;;;10.35;6.47;;;;;;;17.11;59.82;99116.25;3588571;40;20047;-64
2021/06/15 05:14:49;;;;;;;6.63;5.85;;;;;;;17.24;59.93;99116.06;3588828;40;20040;-64
2021/06/15 05:17:22;;;;;;;8.93;5.80;;;;;;;17.39;59.55;99115.63;3588587;40;20080;-64
2021/06/15 05:19:50;;;;;;;9.90;4.72;;;;;;;17.56;59.14;99121.94;3589202;40;20472;-64
2021/06/15 05:22:25;;;;;;;8.60;6.13;;;;;;;17.67;58.79;99121.13;3588625;40;20060;-64
2021/06/15 05:24:54;;;;;;;7.95;6.68;;;;;;;17.64;58.59;99124.28;3588848;40;20055;-64
2021/06/15 05:27:24;;;;;;;9.35;5.70;;;;;;;17.72;58.81;99123.94;3588343;40;20040;-64
2021/06/15 05:29:52;;;;;;;6.10;5.20;;;;;;;17.85;58.08;99130.97;3588851;40;20353;-64
2021/06/15 05:32:28;;;;;;;7.28;6.30;;;;;;;17.84;57.57;99137.38;3588928;40;20076;-64
2021/06/15 05:34:56;;;;;;;9.40;5.63;;;;;;;17.76;57.83;99149.22;3588565;40;20337;-64
2021/06/15 05:37:24;;;;;;;8.10;5.72;;;;;;;17.70;58.02;99154.63;3588296;40;20037;-64
2021/06/15 05:39:51;;;;;;;9.98;6.25;;;;;;;17.71;58.10;99142.88;3588578;40;20049;-63
2021/06/15 05:42:19;;;;;;;10.82;5.97;;;;;;;17.72;58.24;99142.66;3589023;40;20044;-64
2021/06/15 05:44:48;;;;;;;9.73;6.18;;;;;;;17.82;57.94;99156.28;3588579;40;20087;-64
2021/06/15 05:47:16;;;;;;;6.68;5.78;;;;;;;17.88;58.60;99151.06;3588454;40;20033;-64
2021/06/15 05:49:45;;;;;;;9.10;6.20;;;;;;;18.01;58.30;99154.34;3589171;40;20056;-63
2021/06/15 05:52:13;;;;;;;9.88;5.97;;;;;;;18.20;58.37;99155.03;3579293;40;20044;-64
2021/06/15 05:54:41;;;;;;;6.70;5.80;;;;;;;18.26;58.47;99158.66;3588635;40;20059;-64
2021/06/15 05:57:09;;;;;;;7.65;6.25;;;;;;;18.39;58.22;99166.41;3588507;40;20079;-63
2021/06/15 05:59:37;;;;;;;9.23;5.72;;;;;;;18.56;58.42;99163.84;3588894;40;20390;-64
2021/06/15 06:02:06;;;;;;;9.90;6.28;;;;;;;18.63;58.30;99167.19;3588533;40;20063;-64
2021/06/15 06:04:36;;;;;;;11.90;6.55;;;;;;;18.71;58.36;99153.47;3589202;40;20048;-64
2021/06/15 06:09:51;;;;;;;7.10;5.88;;;;;;;19.06;57.28;99155.22;3590449;40;20054;-64
2021/06/15 06:12:19;;;;;;;8.98;5.63;;;;;;;19.20;56.93;99153.09;3590214;40;20048;-64
2021/06/15 06:14:47;;;;;;;9.38;5.50;;;;;;;19.45;55.92;99152.72;3589999;40;20048;-64
2021/06/15 06:17:15;;;;;;;8.30;5.65;;;;;;;19.65;55.51;99152.28;3591300;40;20489;-65
2021/06/15 06:20:03;;;;;;;8.98;5.60;;;;;;;19.73;55.02;99144.66;3585526;40;20055;-65
2021/06/15 06:22:50;;;;;;;7.00;5.65;;;;;;;19.75;54.64;99147.88;3595764;40;20051;-65
2021/06/15 06:25:29;;;;;;;7.45;5.22;;;;;;;19.83;54.60;99152.03;3594275;40;20048;-63
2021/06/15 06:27:56;;;;;;;10.10;5.30;;;;;;;19.95;53.97;99151.94;3595368;40;20041;-64
2021/06/15 06:30:24;;;;;;;10.38;7.50;;;;;;;20.02;53.69;99149.91;3583696;40;20048;-64
2021/06/15 06:32:52;;;;;;;13.57;7.32;;;;;;;19.92;53.34;99161.31;3593945;40;20343;-64
2021/06/15 06:35:20;;;;;;;8.10;5.97;;;;;;;19.87;53.20;99160.41;3595278;40;20405;-64
2021/06/15 06:37:49;;;;;;;11.95;9.48;;;;;;;19.97;52.99;99156.03;3595102;40;20040;-64
2021/06/15 06:40:17;;;;;;;11.20;9.48;;;;;;;19.99;53.04;99156.56;3596102;40;20052;-63
2021/06/15 06:42:45;;;;;;;11.20;5.50;;;;;;;20.05;53.10;99157.47;3594382;40;20052;-63
2021/06/15 06:45:14;;;;;;;7.45;4.93;;;;;;;20.15;52.59;99154.94;3594943;40;20048;-62
2021/06/15 06:47:41;;;;;;;10.23;8.65;;;;;;;20.32;52.37;99159.47;3595377;40;20073;-64
2021/06/15 06:50:10;;;;;;;5.70;5.10;;;;;;;20.39;51.72;99165.47;3595469;40;20048;-63
2021/06/15 06:52:38;;;;;;;8.18;5.97;;;;;;;20.40;52.00;99167.91;3594176;40;20076;-63
2021/06/15 06:55:08;;;;;;;8.40;5.57;;;;;;;20.34;52.12;99166.22;3583939;40;20043;-64
2021/06/15 06:57:36;;;;;;;9.77;5.07;;;;;;;20.36;52.52;99165.97;3592889;40;20052;-66
2021/06/15 07:00:06;;;;;;;11.00;5.55;;;;;;;20.49;52.82;99171.84;3584293;40;20052;-64
2021/06/15 07:02:34;;;;;;;8.55;5.90;;;;;;;20.65;51.95;99163.97;3594047;40;20347;-64
2021/06/15 07:05:01;;;;;;;8.60;6.90;;;;;;;20.82;51.89;99167.41;3584971;40;20052;-64
2021/06/15 07:07:29;;;;;;;9.38;5.72;;;;;;;20.97;51.19;99166.75;3592812;40;20080;-63
2021/06/15 07:09:57;;;;;;;9.93;6.28;;;;;;;21.10;51.21;99168.25;3590146;40;20080;-62
2021/06/15 07:12:26;;;;;;;8.60;5.25;;;;;;;21.21;50.90;99168.09;3589947;40;20055;-63
2021/06/15 07:14:54;;;;;;;7.38;5.13;;;;;;;21.37;50.92;99160.22;3589386;40;20081;-63
2021/06/15 07:17:21;;;;;;;5.85;5.00;;;;;;;21.55;50.70;99157.16;3589445;40;20056;-63
2021/06/15 07:19:49;;;;;;;8.95;4.80;;;;;;;21.71;50.12;99152.72;3580346;40;20372;-63
2021/06/15 07:22:17;;;;;;;8.82;4.90;;;;;;;21.85;49.61;99156.63;3590249;40;20048;-63
2021/06/15 07:24:45;;;;;;;8.15;4.93;;;;;;;21.98;49.63;99158.06;3590044;40;20052;-63
2021/06/15 07:27:13;;;;;;;8.77;4.85;;;;;;;22.17;49.09;99159.31;3580413;40;20040;-63
2021/06/15 07:29:42;;;;;;;11.30;5.32;;;;;;;22.31;48.21;99153.44;3590475;40;20078;-63
2021/06/15 07:32:10;;;;;;;12.80;5.70;;;;;;;22.48;48.30;99154.88;3589885;40;20421;-64
2021/06/15 07:34:37;;;;;;;18.45;10.45;;;;;;;22.73;47.47;99158.75;3589479;40;20055;-64
2021/06/15 07:37:05;;;;;;;9.55;5.57;;;;;;;22.77;47.33;99150.97;3589263;40;20152;-64
2021/06/15 07:39:33;;;;;;;8.50;6.10;;;;;;;22.87;47.44;99145.63;3589446;40;20084;-64
2021/06/15 07:42:03;;;;;;;5.82;4.03;;;;;;;22.97;47.02;99146.47;3589660;40;20133;-64
2021/06/15 07:44:31;;;;;;;6.85;4.45;;;;;;;22.96;47.10;99147.56;3589531;40;20052;-65
2021/06/15 07:47:00;;;;;;;8.10;5.45;;;;;;;23.17;46.52;99143.03;3588828;40;20056;-64
2021/06/15 07:49:30;;;;;;;13.15;6.68;;;;;;;23.34;46.10;99140.09;3589498;40;20396;-64
2021/06/15 07:51:58;;;;;;;10.50;4.63;;;;;;;23.31;46.24;99142.50;3589418;40;20428;-65
2021/06/15 07:54:35;;;;;;;11.90;7.82;;;;;;;23.35;46.50;99140.91;3589276;40;20051;-65
2021/06/15 07:57:04;;;;;;;10.02;4.38;;;;;;;23.61;45.48;99137.16;3587932;40;20126;-65
2021/06/15 07:59:31;;;;;;;11.52;4.50;;;;;;;23.78;45.45;99142.31;3589013;40;20048;-65
2021/06/15 08:02:01;;;;;;;11.35;4.03;;;;;;;23.98;44.89;99145.00;3580045;40;20471;-65
2021/06/15 08:04:29;;;;;;;9.98;5.35;;;;;;;24.16;44.69;99140.09;3590717;40;20054;-64
2021/06/15 08:06:57;;;;;;;14.15;5.40;;;;;;;24.27;43.61;99133.59;3589161;40;20040;-63
2021/06/15 08:09:24;;;;;;;13.63;4.10;;;;;;;24.28;43.54;99134.41;3579736;40;20040;-63
2021/06/15 08:11:52;;;;;;;11.90;4.20;;;;;;;24.29;43.67;99125.19;3588154;40;20088;-63
2021/06/15 08:14:22;;;;;;;10.82;4.65;;;;;;;24.31;44.02;99123.84;3589286;40;20053;-64
2021/06/15 08:16:49;;;;;;;7.20;3.92;;;;;;;24.33;43.89;99127.09;3589007;40;20037;-65
2021/06/15 08:19:19;;;;;;;12.85;4.13;;;;;;;24.36;43.50;99123.84;3579703;40;20047;-64
2021/06/15 08:21:46;;;;;;;8.95;4.10;;;;;;;24.41;43.27;99114.94;3588935;40;20077;-63
2021/06/15 08:24:15;;;;;;;5.72;3.40;;;;;;;24.56;42.73;99125.69;3589123;40;20332;-64
2021/06/15 08:26:43;;;;;;;6.38;3.80;;;;;;;24.68;42.42;99123.47;3579108;40;20044;-64
2021/06/15 08:29:11;;;;;;;9.88;4.65;;;;;;;24.86;41.58;99121.22;3588663;40;20050;-64
2021/06/15 08:31:39;;;;;;;25.00;5.00;;;;;;;24.99;42.02;99123.34;3588992;40;20377;-64
2021/06/15 08:34:07;;;;;;;6.60;3.55;;;;;;;25.09;42.28;99122.47;3579764;40;20110;-64
2021/06/15 08:36:37;;;;;;;8.43;5.07;;;;;;;25.26;42.10;99122.91;3588858;40;20056;-64
2021/06/15 08:39:06;;;;;;;4.72;2.80;;;;;;;25.29;41.48;99127.75;3588742;40;20059;-65
2021/06/15 08:41:34;;;;;;;8.02;3.72;;;;;;;25.33;40.45;99128.00;3590451;40;20428;-64
2021/06/15 08:44:04;;;;;;;8.10;3.72;;;;;;;25.44;40.28;99124.16;3583086;40;20053;-64
2021/06/15 08:46:32;;;;;;;9.13;3.55;;;;;;;25.71;39.20;99120.94;3593003;40;20343;-64
2021/06/15 08:49:01;;;;;;;5.07;3.13;;;;;;;25.76;39.73;99120.06;3634528;22;20061;-60
2021/06/15 08:51:29;;;;;;;7.85;3.10;;;;;;;25.87;39.34;99121.63;3601484;39;20055;-59
2021/06/15 08:54:03;;;;;;;4.88;3.10;;;;;;;25.89;38.79;99119.47;3600803;39;20355;-59
2021/06/15 08:56:33;;;;;;;6.22;3.00;;;;;;;25.96;38.39;99117.19;3600038;40;20094;-58
2021/06/15 08:59:12;;;;;;;6.20;3.30;;;;;;;26.17;37.86;99115.94;3599783;39;20055;-57
2021/06/15 09:01:40;;;;;;;6.65;2.80;;;;;;;26.21;37.45;99115.31;3600186;39;20401;-58
2021/06/15 09:04:08;;;;;;;4.63;3.15;;;;;;;26.30;37.12;99109.00;3599579;39;20308;-58
2021/06/15 09:06:36;;;;;;;5.40;3.50;;;;;;;26.47;36.70;99100.44;3598989;39;20059;-59
2021/06/15 09:09:06;;;;;;;7.60;2.88;;;;;;;26.52;36.91;99105.78;3599066;39;20389;-59
2021/06/15 09:11:52;;;;;;;3.80;2.83;;;;;;;26.47;37.04;99103.16;3598510;40;20050;-58
2021/06/15 09:14:39;;;;;;;7.47;3.25;;;;;;;26.65;35.39;99105.06;3598024;40;20040;-58
2021/06/15 09:17:10;;;;;;;3.88;3.20;;;;;;;26.82;34.70;99096.47;3598686;39;20056;-59
2021/06/15 09:19:40;;;;;;;5.63;2.95;;;;;;;26.90;33.53;99103.94;3599225;39;20421;-58
2021/06/15 09:22:21;;;;;;;5.43;3.28;;;;;;;26.89;34.31;99096.88;3599272;39;20048;-57
2021/06/15 09:24:51;;;;;;;2.92;2.00;;;;;;;26.99;33.97;99098.66;3599116;39;20063;-58
2021/06/15 09:27:20;;;;;;;8.35;5.32;;;;;;;27.12;33.47;99097.16;3598929;39;20051;-57
2021/06/15 09:29:50;;;;;;;4.60;3.38;;;;;;;27.08;33.58;99096.09;3599246;39;20043;-59
2021/06/15 09:32:20;;;;;;;4.88;3.13;;;;;;;26.96;33.97;99098.44;3598862;39;20054;-57
2021/06/15 09:34:57;;;;;;;6.15;2.80;;;;;;;26.83;34.17;99102.69;3599192;39;20050;-61
2021/06/15 09:37:31;;;;;;;5.43;3.30;;;;;;;26.84;34.50;99102.38;3598392;39;20133;-57
2021/06/15 09:40:01;;;;;;;4.65;2.95;;;;;;;26.91;34.37;99099.31;3599086;39;20044;-58
2021/06/15 09:42:29;;;;;;;7.47;3.55;;;;;;;26.86;34.32;99100.22;3598864;39;20324;-58
2021/06/15 09:44:57;;;;;;;4.72;3.15;;;;;;;26.76;34.24;99105.75;3598882;39;20064;-56
2021/06/15 09:47:25;;;;;;;9.10;3.42;;;;;;;26.73;34.57;99102.81;3598548;39;20031;-57
2021/06/15 09:49:55;;;;;;;4.13;2.35;;;;;;;26.71;34.79;99100.41;3598914;39;20134;-58
2021/06/15 09:52:25;;;;;;;3.58;2.78;;;;;;;26.74;33.91;99107.97;3598973;39;20359;-58
2021/06/15 09:54:54;;;;;;;3.10;2.20;;;;;;;26.70;33.91;99093.38;3599182;40;20081;-59
2021/06/15 09:57:25;;;;;;;4.35;2.95;;;;;;;26.63;34.05;99093.72;3598319;39;20074;-57
2021/06/15 10:00:13;;;;;;;8.48;2.95;;;;;;;26.73;33.96;99091.97;3598618;39;20044;-58
2021/06/15 10:02:50;;;;;;;5.63;3.03;;;;;;;26.95;33.68;99100.34;3598589;39;20399;-58
2021/06/15 10:05:27;;;;;;;5.20;2.60;;;;;;;26.99;33.45;99098.66;3598412;39;20409;-58
2021/06/15 10:07:57;;;;;;;6.65;3.92;;;;;;;27.08;33.20;99099.59;3598205;39;20076;-57
2021/06/15 10:10:29;;;;;;;4.35;2.75;;;;;;;27.18;33.32;99095.97;3598169;39;20047;-57
2021/06/15 10:12:59;;;;;;;3.65;2.70;;;;;;;27.05;33.40;99094.75;3598664;39;20087;-57
2021/06/15 10:15:28;;;;;;;7.10;2.45;;;;;;;27.18;33.28;99098.66;3598464;39;20312;-58
2021/06/15 10:17:57;;;;;;;4.55;2.78;;;;;;;27.27;33.14;99090.66;3597823;39;20052;-58
2021/06/15 10:20:28;;;;;;;7.13;2.88;;;;;;;27.19;32.62;99092.16;3598267;39;20047;-58
2021/06/15 10:22:57;;;;;;;6.10;2.40;;;;;;;27.21;32.77;99092.66;3597507;40;20079;-58
2021/06/15 10:25:28;;;;;;;2.97;2.65;;;;;;;27.42;32.74;99096.66;3598879;39;20413;-58
2021/06/15 10:27:58;;;;;;;3.92;2.60;;;;;;;27.49;30.93;99098.19;3601273;39;20044;-59
2021/06/15 10:30:32;;;;;;;6.28;2.72;;;;;;;27.48;31.28;99093.88;3602965;39;20052;-58
2021/06/15 10:33:04;;;;;;;5.13;2.30;;;;;;;27.53;30.20;99085.66;3602490;39;20048;-58
2021/06/15 10:35:38;;;;;;;6.18;2.72;;;;;;;27.54;31.32;99087.25;3602269;39;20317;-57
2021/06/15 10:38:07;;;;;;;4.47;2.42;;;;;;;27.43;32.01;99089.31;3602131;39;20052;-58
2021/06/15 10:40:37;;;;;;;4.63;2.47;;;;;;;27.43;32.41;99089.31;3604181;39;20083;-58
2021/06/15 10:43:15;;;;;;;5.32;2.78;;;;;;;27.44;32.93;99088.22;3605324;39;20048;-57
2021/06/15 10:45:44;;;;;;;4.40;2.75;;;;;;;27.51;33.05;99072.34;3604595;39;20052;-57
2021/06/15 10:48:30;;;;;;;7.20;2.90;;;;;;;27.55;33.47;99070.66;3603655;39;20102;-57
2021/06/15 10:51:00;;;;;;;6.30;3.70;;;;;;;27.63;32.88;99074.59;3604522;39;20360;-58
2021/06/15 10:53:36;;;;;;;5.38;2.53;;;;;;;27.68;32.90;99077.25;3603683;40;20051;-58
2021/06/15 10:56:06;;;;;;;3.78;2.85;;;;;;;27.83;32.86;99068.03;3604344;40;20052;-58
2021/06/15 10:58:59;;;;;;;4.95;2.70;;;;;;;27.98;32.48;99073.19;3604710;39;20065;-58
2021/06/15 11:01:28;;;;;;;4.95;2.70;;;;;;;28.08;31.67;99072.97;3601138;39;20055;-57
2021/06/15 11:03:57;;;;;;;3.85;2.50;;;;;;;27.92;31.87;99066.22;3600892;39;20317;-57
2021/06/15 11:06:39;;;;;;;3.78;2.65;;;;;;;27.84;31.83;99069.63;3600682;39;20044;-56
2021/06/15 11:09:34;;;;;;;4.82;2.60;;;;;;;27.86;32.00;99062.00;3600067;39;20044;-58
2021/06/15 11:12:21;;;;;;;4.20;3.15;;;;;;;28.09;31.63;99063.75;3593288;39;20055;-58
2021/06/15 11:15:11;;;;;;;6.78;3.00;;;;;;;28.25;31.31;99053.38;3602433;39;20024;-59
2021/06/15 11:17:48;;;;;;;6.50;3.03;;;;;;;28.33;31.71;99049.09;3601530;39;20063;-58
2021/06/15 11:20:26;;;;;;;3.80;2.70;;;;;;;28.35;31.54;99047.72;3601391;39;20048;-58
2021/06/15 11:23:15;;;;;;;8.25;3.70;;;;;;;28.45;31.17;99043.19;3601657;39;20043;-59
2021/06/15 11:25:52;;;;;;;5.13;3.00;;;;;;;28.56;30.61;99050.81;3601387;39;20060;-58
2021/06/15 11:28:48;;;;;;;4.78;3.45;;;;;;;28.71;30.67;99049.69;3600402;39;20329;-57
2021/06/15 11:31:32;;;;;;;6.22;3.10;;;;;;;28.71;30.04;99054.34;3599491;39;20102;-62
2021/06/15 11:34:14;;;;;;;5.57;2.78;;;;;;;28.70;30.34;99037.22;3600490;39;20048;-58
2021/06/15 11:36:48;;;;;;;5.00;2.38;;;;;;;28.62;29.87;99043.38;3600298;39;20372;-62
2021/06/15 11:39:35;;;;;;;3.78;2.75;;;;;;;28.76;30.60;99030.53;3599636;39;20052;-57
2021/06/15 11:42:25;;;;;;;11.88;2.70;;;;;;;28.88;30.28;99030.00;3599999;39;20039;-57
2021/06/15 11:45:02;;;;;;;4.72;2.58;;;;;;;28.96;30.05;99031.97;3598986;40;20032;-58
2021/06/15 11:47:39;;;;;;;5.15;2.42;;;;;;;29.14;29.93;99032.94;3600011;39;20294;-57
2021/06/15 11:50:26;;;;;;;3.33;2.60;;;;;;;29.26;29.84;99033.19;3599784;39;20415;-58
2021/06/15 11:52:57;;;;;;;4.68;3.10;;;;;;;29.28;29.33;99027.44;3599756;39;20056;-58
2021/06/15 11:55:36;;;;;;;5.53;2.75;;;;;;;29.27;29.03;99014.94;3599831;39;20056;-57